sensor_id;sensor_type;location;lat;lon;timestamp;P1;durP1;ratioP1;P2;durP2;ratioP2
21941;SDS011;11135;54.192;15.670;2023-06-26T00:00:14;8.07;;;6.30;;
21941;SDS011;11135;54.192;15.670;2023-06-26T00:03:40;9.07;;;6.45;;
21941;SDS011;11135;54.192;15.670;2023-06-26T00:06:45;9.43;;;6.43;;
21941;SDS011;11135;54.192;15.670;2023-06-26T00:09:50;9.38;;;6.68;;
21941;SDS011;11135;54.192;15.670;2023-06-26T00:12:57;8.57;;;6.68;;
21941;SDS011;11135;54.192;15.670;2023-06-26T00:16:06;7.80;;;6.05;;
21941;SDS011;11135;54.192;15.670;2023-06-26T00:19:12;8.38;;;6.68;;
21941;SDS011;11135;54.192;15.670;2023-06-26T00:22:17;9.52;;;5.70;;
21941;SDS011;11135;54.192;15.670;2023-06-26T00:25:22;8.93;;;6.35;;
21941;SDS011;11135;54.192;15.670;2023-06-26T00:28:27;9.93;;;5.65;;
21941;SDS011;11135;54.192;15.670;2023-06-26T00:31:35;8.00;;;5.95;;
21941;SDS011;11135;54.192;15.670;2023-06-26T00:34:44;8.63;;;6.43;;
21941;SDS011;11135;54.192;15.670;2023-06-26T00:37:49;8.57;;;6.50;;
21941;SDS011;11135;54.192;15.670;2023-06-26T00:40:54;8.90;;;6.10;;
21941;SDS011;11135;54.192;15.670;2023-06-26T00:43:59;11.55;;;8.15;;
21941;SDS011;11135;54.192;15.670;2023-06-26T00:47:08;7.70;;;5.90;;
21941;SDS011;11135;54.192;15.670;2023-06-26T00:50:13;8.68;;;5.82;;
21941;SDS011;11135;54.192;15.670;2023-06-26T00:53:19;8.65;;;5.90;;
21941;SDS011;11135;54.192;15.670;2023-06-26T00:56:27;8.93;;;6.63;;
21941;SDS011;11135;54.192;15.670;2023-06-26T00:59:36;9.98;;;6.45;;
21941;SDS011;11135;54.192;15.670;2023-06-26T01:02:44;9.75;;;6.38;;
21941;SDS011;11135;54.192;15.670;2023-06-26T01:05:50;9.77;;;5.95;;
21941;SDS011;11135;54.192;15.670;2023-06-26T01:08:57;8.55;;;6.25;;
21941;SDS011;11135;54.192;15.670;2023-06-26T01:12:03;8.65;;;6.30;;
21941;SDS011;11135;54.192;15.670;2023-06-26T01:15:09;10.35;;;6.60;;
21941;SDS011;11135;54.192;15.670;2023-06-26T01:18:17;10.20;;;6.43;;
21941;SDS011;11135;54.192;15.670;2023-06-26T01:21:22;11.88;;;6.88;;
21941;SDS011;11135;54.192;15.670;2023-06-26T01:24:31;10.40;;;6.93;;
21941;SDS011;11135;54.192;15.670;2023-06-26T01:27:41;9.27;;;6.57;;
21941;SDS011;11135;54.192;15.670;2023-06-26T01:30:47;10.35;;;6.75;;
21941;SDS011;11135;54.192;15.670;2023-06-26T01:33:53;7.05;;;5.78;;
21941;SDS011;11135;54.192;15.670;2023-06-26T01:36:58;7.85;;;5.97;;
21941;SDS011;11135;54.192;15.670;2023-06-26T01:40:03;9.35;;;6.53;;
21941;SDS011;11135;54.192;15.670;2023-06-26T01:43:14;10.93;;;6.80;;
21941;SDS011;11135;54.192;15.670;2023-06-26T01:46:21;10.23;;;6.65;;
21941;SDS011;11135;54.192;15.670;2023-06-26T01:49:30;9.57;;;6.10;;
21941;SDS011;11135;54.192;15.670;2023-06-26T01:52:37;9.70;;;6.55;;
21941;SDS011;11135;54.192;15.670;2023-06-26T01:55:45;8.63;;;6.35;;
21941;SDS011;11135;54.192;15.670;2023-06-26T01:59:01;9.57;;;5.85;;
21941;SDS011;11135;54.192;15.670;2023-06-26T02:02:11;9.63;;;6.80;;
21941;SDS011;11135;54.192;15.670;2023-06-26T02:05:19;9.15;;;6.35;;
21941;SDS011;11135;54.192;15.670;2023-06-26T02:08:26;10.43;;;7.20;;
21941;SDS011;11135;54.192;15.670;2023-06-26T02:11:31;8.48;;;6.82;;
21941;SDS011;11135;54.192;15.670;2023-06-26T02:14:39;10.20;;;7.10;;
21941;SDS011;11135;54.192;15.670;2023-06-26T02:17:44;9.52;;;6.68;;
21941;SDS011;11135;54.192;15.670;2023-06-26T02:20:51;9.52;;;6.55;;
21941;SDS011;11135;54.192;15.670;2023-06-26T02:23:57;9.32;;;6.30;;
21941;SDS011;11135;54.192;15.670;2023-06-26T02:27:03;12.23;;;7.85;;
21941;SDS011;11135;54.192;15.670;2023-06-26T02:30:11;10.93;;;7.32;;
21941;SDS011;11135;54.192;15.670;2023-06-26T02:33:16;10.80;;;7.10;;
21941;SDS011;11135;54.192;15.670;2023-06-26T02:36:21;9.23;;;6.63;;
21941;SDS011;11135;54.192;15.670;2023-06-26T02:39:27;12.13;;;6.90;;
21941;SDS011;11135;54.192;15.670;2023-06-26T02:42:32;11.20;;;6.65;;
21941;SDS011;11135;54.192;15.670;2023-06-26T02:45:41;10.02;;;6.88;;
21941;SDS011;11135;54.192;15.670;2023-06-26T02:48:46;11.40;;;6.50;;
21941;SDS011;11135;54.192;15.670;2023-06-26T02:51:51;9.05;;;6.95;;
21941;SDS011;11135;54.192;15.670;2023-06-26T02:54:58;8.85;;;7.03;;
21941;SDS011;11135;54.192;15.670;2023-06-26T02:58:03;11.38;;;7.68;;
21941;SDS011;11135;54.192;15.670;2023-06-26T03:01:11;9.80;;;7.05;;
21941;SDS011;11135;54.192;15.670;2023-06-26T03:04:19;11.20;;;7.20;;
21941;SDS011;11135;54.192;15.670;2023-06-26T03:07:26;9.50;;;7.32;;
21941;SDS011;11135;54.192;15.670;2023-06-26T03:10:31;10.00;;;7.15;;
21941;SDS011;11135;54.192;15.670;2023-06-26T03:13:37;9.38;;;7.35;;
21941;SDS011;11135;54.192;15.670;2023-06-26T03:16:45;12.10;;;6.78;;
21941;SDS011;11135;54.192;15.670;2023-06-26T03:19:50;10.15;;;7.45;;
21941;SDS011;11135;54.192;15.670;2023-06-26T03:22:55;9.60;;;7.35;;
21941;SDS011;11135;54.192;15.670;2023-06-26T03:26:00;9.80;;;6.78;;
21941;SDS011;11135;54.192;15.670;2023-06-26T03:29:06;9.65;;;7.20;;
21941;SDS011;11135;54.192;15.670;2023-06-26T03:32:14;8.90;;;6.55;;
21941;SDS011;11135;54.192;15.670;2023-06-26T03:35:19;10.80;;;7.43;;
21941;SDS011;11135;54.192;15.670;2023-06-26T03:38:24;9.50;;;7.35;;
21941;SDS011;11135;54.192;15.670;2023-06-26T03:41:31;10.43;;;7.88;;
21941;SDS011;11135;54.192;15.670;2023-06-26T03:44:36;11.82;;;7.80;;
21941;SDS011;11135;54.192;15.670;2023-06-26T03:47:44;8.20;;;6.75;;
21941;SDS011;11135;54.192;15.670;2023-06-26T03:50:51;8.75;;;7.32;;
21941;SDS011;11135;54.192;15.670;2023-06-26T03:53:56;9.85;;;7.25;;
21941;SDS011;11135;54.192;15.670;2023-06-26T03:57:02;10.10;;;6.38;;
21941;SDS011;11135;54.192;15.670;2023-06-26T04:00:08;9.35;;;7.43;;
21941;SDS011;11135;54.192;15.670;2023-06-26T04:03:17;9.00;;;6.55;;
21941;SDS011;11135;54.192;15.670;2023-06-26T04:06:23;9.82;;;7.10;;
21941;SDS011;11135;54.192;15.670;2023-06-26T04:09:28;8.07;;;6.55;;
21941;SDS011;11135;54.192;15.670;2023-06-26T04:12:34;8.73;;;6.70;;
21941;SDS011;11135;54.192;15.670;2023-06-26T04:15:39;7.45;;;5.85;;
21941;SDS011;11135;54.192;15.670;2023-06-26T04:18:47;8.40;;;6.22;;
21941;SDS011;11135;54.192;15.670;2023-06-26T04:21:53;7.57;;;6.07;;
21941;SDS011;11135;54.192;15.670;2023-06-26T04:24:58;13.80;;;8.45;;
21941;SDS011;11135;54.192;15.670;2023-06-26T04:28:03;8.05;;;5.93;;
21941;SDS011;11135;54.192;15.670;2023-06-26T04:31:09;8.75;;;5.80;;
21941;SDS011;11135;54.192;15.670;2023-06-26T04:34:18;7.47;;;5.70;;
21941;SDS011;11135;54.192;15.670;2023-06-26T04:37:23;7.38;;;6.03;;
21941;SDS011;11135;54.192;15.670;2023-06-26T04:40:29;10.93;;;6.82;;
21941;SDS011;11135;54.192;15.670;2023-06-26T04:43:34;6.85;;;6.00;;
21941;SDS011;11135;54.192;15.670;2023-06-26T04:46:39;10.25;;;6.43;;
21941;SDS011;11135;54.192;15.670;2023-06-26T04:49:48;6.03;;;5.32;;
21941;SDS011;11135;54.192;15.670;2023-06-26T04:52:53;9.15;;;5.53;;
21941;SDS011;11135;54.192;15.670;2023-06-26T04:55:59;9.32;;;5.28;;
21941;SDS011;11135;54.192;15.670;2023-06-26T04:59:04;7.68;;;5.90;;
21941;SDS011;11135;54.192;15.670;2023-06-26T05:02:15;7.22;;;5.22;;
21941;SDS011;11135;54.192;15.670;2023-06-26T05:05:23;6.88;;;5.20;;
21941;SDS011;11135;54.192;15.670;2023-06-26T05:11:49;8.95;;;6.07;;
21941;SDS011;11135;54.192;15.670;2023-06-26T05:15:01;8.13;;;5.57;;
21941;SDS011;11135;54.192;15.670;2023-06-26T05:18:06;6.30;;;5.35;;
21941;SDS011;11135;54.192;15.670;2023-06-26T05:21:14;7.45;;;5.38;;
21941;SDS011;11135;54.192;15.670;2023-06-26T05:24:20;7.60;;;5.38;;
21941;SDS011;11135;54.192;15.670;2023-06-26T05:27:27;6.45;;;4.78;;
21941;SDS011;11135;54.192;15.670;2023-06-26T05:30:32;8.00;;;5.15;;
21941;SDS011;11135;54.192;15.670;2023-06-26T05:33:40;7.88;;;4.90;;
21941;SDS011;11135;54.192;15.670;2023-06-26T05:36:50;7.50;;;5.55;;
21941;SDS011;11135;54.192;15.670;2023-06-26T05:39:56;6.55;;;5.20;;
21941;SDS011;11135;54.192;15.670;2023-06-26T05:43:02;12.23;;;5.60;;
21941;SDS011;11135;54.192;15.670;2023-06-26T05:46:08;7.13;;;5.03;;
21941;SDS011;11135;54.192;15.670;2023-06-26T05:49:13;7.28;;;4.80;;
21941;SDS011;11135;54.192;15.670;2023-06-26T05:52:22;6.28;;;5.00;;
21941;SDS011;11135;54.192;15.670;2023-06-26T05:55:28;6.75;;;4.38;;
21941;SDS011;11135;54.192;15.670;2023-06-26T05:58:34;6.18;;;4.03;;
21941;SDS011;11135;54.192;15.670;2023-06-26T06:01:40;6.15;;;4.25;;
21941;SDS011;11135;54.192;15.670;2023-06-26T06:04:45;6.57;;;5.00;;
21941;SDS011;11135;54.192;15.670;2023-06-26T06:07:56;6.20;;;4.50;;
21941;SDS011;11135;54.192;15.670;2023-06-26T06:11:01;6.55;;;4.68;;
21941;SDS011;11135;54.192;15.670;2023-06-26T06:14:07;5.00;;;4.00;;
21941;SDS011;11135;54.192;15.670;2023-06-26T06:17:13;5.63;;;4.22;;
21941;SDS011;11135;54.192;15.670;2023-06-26T06:20:19;6.90;;;4.35;;
21941;SDS011;11135;54.192;15.670;2023-06-26T06:23:31;6.78;;;3.22;;
21941;SDS011;11135;54.192;15.670;2023-06-26T06:26:37;8.15;;;4.15;;
21941;SDS011;11135;54.192;15.670;2023-06-26T06:29:42;5.43;;;4.28;;
21941;SDS011;11135;54.192;15.670;2023-06-26T06:32:47;5.60;;;3.80;;
21941;SDS011;11135;54.192;15.670;2023-06-26T06:35:55;5.30;;;3.97;;
21941;SDS011;11135;54.192;15.670;2023-06-26T06:39:03;8.05;;;4.00;;
21941;SDS011;11135;54.192;15.670;2023-06-26T06:42:09;5.28;;;3.92;;
21941;SDS011;11135;54.192;15.670;2023-06-26T06:45:16;5.15;;;3.58;;
21941;SDS011;11135;54.192;15.670;2023-06-26T06:48:21;4.88;;;4.03;;
21941;SDS011;11135;54.192;15.670;2023-06-26T06:51:28;5.93;;;3.40;;
21941;SDS011;11135;54.192;15.670;2023-06-26T06:54:37;4.55;;;3.28;;
21941;SDS011;11135;54.192;15.670;2023-06-26T06:57:55;7.78;;;4.22;;
21941;SDS011;11135;54.192;15.670;2023-06-26T07:01:02;4.22;;;3.10;;
21941;SDS011;11135;54.192;15.670;2023-06-26T07:04:09;4.78;;;3.42;;
21941;SDS011;11135;54.192;15.670;2023-06-26T07:07:19;4.65;;;2.92;;
21941;SDS011;11135;54.192;15.670;2023-06-26T07:10:27;6.22;;;3.42;;
21941;SDS011;11135;54.192;15.670;2023-06-26T07:13:33;4.60;;;3.13;;
21941;SDS011;11135;54.192;15.670;2023-06-26T07:16:39;3.95;;;3.20;;
21941;SDS011;11135;54.192;15.670;2023-06-26T07:19:45;3.75;;;2.30;;
21941;SDS011;11135;54.192;15.670;2023-06-26T07:22:52;4.75;;;3.63;;
21941;SDS011;11135;54.192;15.670;2023-06-26T07:26:00;7.28;;;3.63;;
21941;SDS011;11135;54.192;15.670;2023-06-26T07:29:05;4.65;;;3.55;;
21941;SDS011;11135;54.192;15.670;2023-06-26T07:32:11;4.95;;;3.03;;
21941;SDS011;11135;54.192;15.670;2023-06-26T07:35:17;3.80;;;2.70;;
21941;SDS011;11135;54.192;15.670;2023-06-26T07:38:22;5.13;;;3.30;;
21941;SDS011;11135;54.192;15.670;2023-06-26T07:41:30;5.43;;;3.38;;
21941;SDS011;11135;54.192;15.670;2023-06-26T07:44:38;4.43;;;2.95;;
21941;SDS011;11135;54.192;15.670;2023-06-26T07:47:43;4.00;;;3.00;;
21941;SDS011;11135;54.192;15.670;2023-06-26T07:50:50;4.97;;;2.60;;
21941;SDS011;11135;54.192;15.670;2023-06-26T07:53:57;4.47;;;3.05;;
21941;SDS011;11135;54.192;15.670;2023-06-26T07:57:09;4.78;;;2.70;;
21941;SDS011;11135;54.192;15.670;2023-06-26T08:00:19;4.13;;;2.63;;
21941;SDS011;11135;54.192;15.670;2023-06-26T08:03:25;4.68;;;3.00;;
21941;SDS011;11135;54.192;15.670;2023-06-26T08:06:36;3.53;;;2.50;;
21941;SDS011;11135;54.192;15.670;2023-06-26T08:09:42;4.20;;;2.63;;
21941;SDS011;11135;54.192;15.670;2023-06-26T08:12:50;4.13;;;2.78;;
21941;SDS011;11135;54.192;15.670;2023-06-26T08:15:56;4.85;;;2.83;;
21941;SDS011;11135;54.192;15.670;2023-06-26T08:19:01;5.25;;;2.88;;
21941;SDS011;11135;54.192;15.670;2023-06-26T08:22:07;3.45;;;2.38;;
21941;SDS011;11135;54.192;15.670;2023-06-26T08:25:13;5.50;;;2.97;;
21941;SDS011;11135;54.192;15.670;2023-06-26T08:28:22;5.80;;;2.90;;
21941;SDS011;11135;54.192;15.670;2023-06-26T08:31:30;5.77;;;3.30;;
21941;SDS011;11135;54.192;15.670;2023-06-26T08:34:36;6.57;;;2.80;;
21941;SDS011;11135;54.192;15.670;2023-06-26T08:37:42;4.65;;;3.17;;
21941;SDS011;11135;54.192;15.670;2023-06-26T08:40:50;4.25;;;3.17;;
21941;SDS011;11135;54.192;15.670;2023-06-26T08:44:25;4.25;;;3.00;;
21941;SDS011;11135;54.192;15.670;2023-06-26T08:47:41;4.70;;;3.00;;
21941;SDS011;11135;54.192;15.670;2023-06-26T08:51:51;3.60;;;2.88;;
21941;SDS011;11135;54.192;15.670;2023-06-26T08:55:23;5.30;;;3.80;;
21941;SDS011;11135;54.192;15.670;2023-06-26T08:59:28;7.45;;;4.53;;
21941;SDS011;11135;54.192;15.670;2023-06-26T09:06:41;5.85;;;3.80;;
21941;SDS011;11135;54.192;15.670;2023-06-26T09:09:55;11.73;;;4.68;;
21941;SDS011;11135;54.192;15.670;2023-06-26T09:13:03;7.25;;;4.32;;
21941;SDS011;11135;54.192;15.670;2023-06-26T09:16:52;9.68;;;4.93;;
21941;SDS011;11135;54.192;15.670;2023-06-26T09:20:25;7.95;;;4.60;;
21941;SDS011;11135;54.192;15.670;2023-06-26T09:23:36;9.38;;;4.80;;
21941;SDS011;11135;54.192;15.670;2023-06-26T09:26:48;5.75;;;3.92;;
21941;SDS011;11135;54.192;15.670;2023-06-26T09:30:35;10.30;;;4.03;;
21941;SDS011;11135;54.192;15.670;2023-06-26T09:33:47;9.82;;;4.25;;
21941;SDS011;11135;54.192;15.670;2023-06-26T09:37:44;5.15;;;4.00;;
21941;SDS011;11135;54.192;15.670;2023-06-26T09:41:10;5.72;;;4.03;;
21941;SDS011;11135;54.192;15.670;2023-06-26T09:44:21;7.22;;;3.75;;
21941;SDS011;11135;54.192;15.670;2023-06-26T09:47:43;5.85;;;4.03;;
21941;SDS011;11135;54.192;15.670;2023-06-26T09:54:42;5.15;;;3.65;;
21941;SDS011;11135;54.192;15.670;2023-06-26T09:58:03;10.20;;;4.63;;
21941;SDS011;11135;54.192;15.670;2023-06-26T10:01:40;7.97;;;4.68;;
21941;SDS011;11135;54.192;15.670;2023-06-26T10:05:22;6.78;;;4.40;;
21941;SDS011;11135;54.192;15.670;2023-06-26T10:09:03;6.68;;;4.63;;
21941;SDS011;11135;54.192;15.670;2023-06-26T10:12:23;6.97;;;4.30;;
21941;SDS011;11135;54.192;15.670;2023-06-26T10:16:15;7.88;;;5.10;;
21941;SDS011;11135;54.192;15.670;2023-06-26T10:19:37;7.22;;;4.53;;
21941;SDS011;11135;54.192;15.670;2023-06-26T10:22:50;6.28;;;4.80;;
21941;SDS011;11135;54.192;15.670;2023-06-26T10:26:41;5.85;;;4.40;;
21941;SDS011;11135;54.192;15.670;2023-06-26T10:33:35;6.47;;;3.95;;
21941;SDS011;11135;54.192;15.670;2023-06-26T10:37:03;7.55;;;3.88;;
21941;SDS011;11135;54.192;15.670;2023-06-26T10:40:21;6.35;;;3.65;;
21941;SDS011;11135;54.192;15.670;2023-06-26T10:43:55;4.60;;;3.60;;
21941;SDS011;11135;54.192;15.670;2023-06-26T10:47:31;7.10;;;4.07;;
21941;SDS011;11135;54.192;15.670;2023-06-26T10:54:50;4.32;;;3.22;;
21941;SDS011;11135;54.192;15.670;2023-06-26T10:58:33;4.87;;;3.80;;
21941;SDS011;11135;54.192;15.670;2023-06-26T11:01:45;7.47;;;4.30;;
21941;SDS011;11135;54.192;15.670;2023-06-26T11:05:27;8.43;;;4.18;;
21941;SDS011;11135;54.192;15.670;2023-06-26T11:09:15;11.07;;;4.05;;
21941;SDS011;11135;54.192;15.670;2023-06-26T11:12:58;6.88;;;3.80;;
21941;SDS011;11135;54.192;15.670;2023-06-26T11:16:46;9.43;;;3.70;;
21941;SDS011;11135;54.192;15.670;2023-06-26T11:20:33;8.75;;;4.00;;
21941;SDS011;11135;54.192;15.670;2023-06-26T11:24:10;6.82;;;3.85;;
21941;SDS011;11135;54.192;15.670;2023-06-26T11:31:36;5.50;;;3.55;;
21941;SDS011;11135;54.192;15.670;2023-06-26T11:34:57;5.07;;;3.72;;
21941;SDS011;11135;54.192;15.670;2023-06-26T11:38:43;5.25;;;4.38;;
21941;SDS011;11135;54.192;15.670;2023-06-26T11:41:53;4.50;;;4.05;;
21941;SDS011;11135;54.192;15.670;2023-06-26T11:46:02;5.82;;;4.20;;
21941;SDS011;11135;54.192;15.670;2023-06-26T11:56:50;6.05;;;4.00;;
21941;SDS011;11135;54.192;15.670;2023-06-26T12:00:23;6.30;;;4.07;;
21941;SDS011;11135;54.192;15.670;2023-06-26T12:04:06;6.40;;;4.10;;
21941;SDS011;11135;54.192;15.670;2023-06-26T12:07:31;5.72;;;4.97;;
21941;SDS011;11135;54.192;15.670;2023-06-26T12:10:43;10.70;;;4.75;;
21941;SDS011;11135;54.192;15.670;2023-06-26T12:14:00;6.20;;;4.43;;
21941;SDS011;11135;54.192;15.670;2023-06-26T12:17:29;5.57;;;4.03;;
21941;SDS011;11135;54.192;15.670;2023-06-26T12:20:39;6.03;;;5.00;;
21941;SDS011;11135;54.192;15.670;2023-06-26T12:23:47;5.30;;;4.00;;
21941;SDS011;11135;54.192;15.670;2023-06-26T12:27:09;7.45;;;4.03;;
21941;SDS011;11135;54.192;15.670;2023-06-26T12:31:09;6.47;;;4.15;;
21941;SDS011;11135;54.192;15.670;2023-06-26T12:34:27;5.03;;;4.13;;
21941;SDS011;11135;54.192;15.670;2023-06-26T12:45:37;4.90;;;4.20;;
21941;SDS011;11135;54.192;15.670;2023-06-26T14:35:16;4.53;;;3.50;;
21941;SDS011;11135;54.192;15.670;2023-06-26T14:52:00;7.35;;;3.58;;
21941;SDS011;11135;54.192;15.670;2023-06-26T15:01:55;4.55;;;3.20;;
21941;SDS011;11135;54.192;15.670;2023-06-26T15:08:27;5.78;;;4.68;;
21941;SDS011;11135;54.192;15.670;2023-06-26T15:11:33;5.70;;;3.65;;
21941;SDS011;11135;54.192;15.670;2023-06-26T15:17:50;4.83;;;3.63;;
21941;SDS011;11135;54.192;15.670;2023-06-26T15:20:55;5.53;;;3.47;;
21941;SDS011;11135;54.192;15.670;2023-06-26T15:24:06;5.47;;;3.38;;
21941;SDS011;11135;54.192;15.670;2023-06-26T15:27:11;6.20;;;3.17;;
21941;SDS011;11135;54.192;15.670;2023-06-26T15:30:18;5.28;;;3.38;;
21941;SDS011;11135;54.192;15.670;2023-06-26T15:33:23;6.57;;;3.10;;
21941;SDS011;11135;54.192;15.670;2023-06-26T15:39:38;6.57;;;3.70;;
21941;SDS011;11135;54.192;15.670;2023-06-26T15:42:47;5.03;;;3.38;;
21941;SDS011;11135;54.192;15.670;2023-06-26T15:45:52;6.40;;;3.08;;
21941;SDS011;11135;54.192;15.670;2023-06-26T15:48:58;5.35;;;3.40;;
21941;SDS011;11135;54.192;15.670;2023-06-26T15:52:05;7.85;;;4.15;;
21941;SDS011;11135;54.192;15.670;2023-06-26T15:55:18;7.22;;;3.53;;
21941;SDS011;11135;54.192;15.670;2023-06-26T15:58:25;5.10;;;3.85;;
21941;SDS011;11135;54.192;15.670;2023-06-26T16:01:30;5.30;;;3.35;;
21941;SDS011;11135;54.192;15.670;2023-06-26T16:04:42;5.85;;;3.67;;
21941;SDS011;11135;54.192;15.670;2023-06-26T16:11:01;7.43;;;3.70;;
21941;SDS011;11135;54.192;15.670;2023-06-26T16:14:10;5.37;;;3.67;;
21941;SDS011;11135;54.192;15.670;2023-06-26T16:17:16;7.28;;;4.03;;
21941;SDS011;11135;54.192;15.670;2023-06-26T16:20:21;5.07;;;3.28;;
21941;SDS011;11135;54.192;15.670;2023-06-26T16:23:27;7.00;;;3.85;;
21941;SDS011;11135;54.192;15.670;2023-06-26T16:26:36;5.72;;;4.07;;
21941;SDS011;11135;54.192;15.670;2023-06-26T16:29:42;7.05;;;5.05;;
21941;SDS011;11135;54.192;15.670;2023-06-26T16:32:48;10.60;;;4.43;;
21941;SDS011;11135;54.192;15.670;2023-06-26T16:35:58;6.38;;;4.15;;
21941;SDS011;11135;54.192;15.670;2023-06-26T16:39:04;6.35;;;4.10;;
21941;SDS011;11135;54.192;15.670;2023-06-26T16:42:12;11.50;;;3.90;;
21941;SDS011;11135;54.192;15.670;2023-06-26T16:45:20;10.73;;;2.90;;
21941;SDS011;11135;54.192;15.670;2023-06-26T16:48:26;17.98;;;3.70;;
21941;SDS011;11135;54.192;15.670;2023-06-26T16:51:31;25.92;;;4.80;;
21941;SDS011;11135;54.192;15.670;2023-06-26T16:54:36;22.80;;;4.75;;
21941;SDS011;11135;54.192;15.670;2023-06-26T16:57:45;26.13;;;5.45;;
21941;SDS011;11135;54.192;15.670;2023-06-26T17:00:50;24.10;;;6.00;;
21941;SDS011;11135;54.192;15.670;2023-06-26T17:03:55;30.73;;;6.32;;
21941;SDS011;11135;54.192;15.670;2023-06-26T17:07:00;18.92;;;5.18;;
21941;SDS011;11135;54.192;15.670;2023-06-26T17:10:06;24.27;;;7.72;;
21941;SDS011;11135;54.192;15.670;2023-06-26T17:13:14;17.45;;;5.40;;
21941;SDS011;11135;54.192;15.670;2023-06-26T17:16:19;20.30;;;5.72;;
21941;SDS011;11135;54.192;15.670;2023-06-26T17:19:24;20.90;;;6.88;;
21941;SDS011;11135;54.192;15.670;2023-06-26T17:22:30;19.00;;;5.32;;
21941;SDS011;11135;54.192;15.670;2023-06-26T17:25:35;26.25;;;6.38;;
21941;SDS011;11135;54.192;15.670;2023-06-26T17:28:43;20.92;;;8.30;;
21941;SDS011;11135;54.192;15.670;2023-06-26T17:31:48;27.27;;;6.70;;
21941;SDS011;11135;54.192;15.670;2023-06-26T17:34:53;25.92;;;6.85;;
21941;SDS011;11135;54.192;15.670;2023-06-26T17:38:00;19.42;;;5.30;;
21941;SDS011;11135;54.192;15.670;2023-06-26T17:41:07;13.80;;;4.15;;
21941;SDS011;11135;54.192;15.670;2023-06-26T17:44:14;7.43;;;3.05;;
21941;SDS011;11135;54.192;15.670;2023-06-26T17:47:20;11.13;;;4.13;;
21941;SDS011;11135;54.192;15.670;2023-06-26T17:50:25;13.07;;;3.75;;
21941;SDS011;11135;54.192;15.670;2023-06-26T17:53:32;19.77;;;5.43;;
21941;SDS011;11135;54.192;15.670;2023-06-26T17:56:38;18.65;;;5.45;;
21941;SDS011;11135;54.192;15.670;2023-06-26T17:59:50;23.45;;;5.20;;
21941;SDS011;11135;54.192;15.670;2023-06-26T18:02:56;16.70;;;4.03;;
21941;SDS011;11135;54.192;15.670;2023-06-26T18:06:02;19.77;;;5.82;;
21941;SDS011;11135;54.192;15.670;2023-06-26T18:09:07;21.88;;;5.35;;
21941;SDS011;11135;54.192;15.670;2023-06-26T18:12:13;25.55;;;6.43;;
21941;SDS011;11135;54.192;15.670;2023-06-26T18:15:24;24.05;;;6.80;;
21941;SDS011;11135;54.192;15.670;2023-06-26T18:18:31;22.52;;;5.60;;
21941;SDS011;11135;54.192;15.670;2023-06-26T18:21:37;14.38;;;5.40;;
21941;SDS011;11135;54.192;15.670;2023-06-26T18:24:42;13.48;;;4.63;;
21941;SDS011;11135;54.192;15.670;2023-06-26T18:27:50;17.50;;;5.47;;
21941;SDS011;11135;54.192;15.670;2023-06-26T18:30:58;19.92;;;8.00;;
21941;SDS011;11135;54.192;15.670;2023-06-26T18:34:04;20.23;;;7.80;;
21941;SDS011;11135;54.192;15.670;2023-06-26T18:37:09;18.85;;;8.07;;
21941;SDS011;11135;54.192;15.670;2023-06-26T18:40:15;19.58;;;6.97;;
21941;SDS011;11135;54.192;15.670;2023-06-26T18:43:20;20.02;;;6.65;;
21941;SDS011;11135;54.192;15.670;2023-06-26T18:46:30;21.27;;;6.55;;
21941;SDS011;11135;54.192;15.670;2023-06-26T18:49:38;21.40;;;8.13;;
21941;SDS011;11135;54.192;15.670;2023-06-26T18:52:46;21.40;;;6.63;;
21941;SDS011;11135;54.192;15.670;2023-06-26T18:55:51;16.63;;;7.35;;
21941;SDS011;11135;54.192;15.670;2023-06-26T18:58:56;17.42;;;6.80;;
21941;SDS011;11135;54.192;15.670;2023-06-26T19:02:06;22.13;;;6.38;;
21941;SDS011;11135;54.192;15.670;2023-06-26T19:05:12;12.82;;;5.90;;
21941;SDS011;11135;54.192;15.670;2023-06-26T19:08:21;17.67;;;6.63;;
21941;SDS011;11135;54.192;15.670;2023-06-26T19:11:26;13.52;;;6.53;;
21941;SDS011;11135;54.192;15.670;2023-06-26T19:14:36;15.15;;;6.75;;
21941;SDS011;11135;54.192;15.670;2023-06-26T19:17:45;13.73;;;6.43;;
21941;SDS011;11135;54.192;15.670;2023-06-26T19:20:50;11.05;;;5.95;;
21941;SDS011;11135;54.192;15.670;2023-06-26T19:23:57;15.35;;;6.25;;
21941;SDS011;11135;54.192;15.670;2023-06-26T19:27:03;12.95;;;6.28;;
21941;SDS011;11135;54.192;15.670;2023-06-26T19:30:08;16.73;;;8.60;;
21941;SDS011;11135;54.192;15.670;2023-06-26T19:33:19;15.80;;;7.47;;
21941;SDS011;11135;54.192;15.670;2023-06-26T19:36:24;16.63;;;7.32;;
21941;SDS011;11135;54.192;15.670;2023-06-26T19:39:30;13.05;;;8.10;;
21941;SDS011;11135;54.192;15.670;2023-06-26T19:42:35;16.92;;;9.32;;
21941;SDS011;11135;54.192;15.670;2023-06-26T19:45:43;16.05;;;8.73;;
21941;SDS011;11135;54.192;15.670;2023-06-26T19:48:53;16.38;;;9.80;;
21941;SDS011;11135;54.192;15.670;2023-06-26T19:51:59;22.42;;;11.93;;
21941;SDS011;11135;54.192;15.670;2023-06-26T19:55:04;20.55;;;10.45;;
21941;SDS011;11135;54.192;15.670;2023-06-26T19:58:10;18.08;;;9.68;;
21941;SDS011;11135;54.192;15.670;2023-06-26T20:01:18;21.98;;;12.43;;
21941;SDS011;11135;54.192;15.670;2023-06-26T20:07:52;20.30;;;12.13;;
21941;SDS011;11135;54.192;15.670;2023-06-26T20:10:57;18.20;;;12.52;;
21941;SDS011;11135;54.192;15.670;2023-06-26T20:14:05;20.13;;;10.50;;
21941;SDS011;11135;54.192;15.670;2023-06-26T20:17:10;24.30;;;12.05;;
21941;SDS011;11135;54.192;15.670;2023-06-26T20:20:16;22.95;;;13.07;;
21941;SDS011;11135;54.192;15.670;2023-06-26T20:23:24;19.65;;;11.65;;
21941;SDS011;11135;54.192;15.670;2023-06-26T20:26:29;14.80;;;10.35;;
21941;SDS011;11135;54.192;15.670;2023-06-26T20:29:36;17.98;;;11.70;;
21941;SDS011;11135;54.192;15.670;2023-06-26T20:32:42;12.60;;;8.93;;
21941;SDS011;11135;54.192;15.670;2023-06-26T20:35:48;16.20;;;9.75;;
21941;SDS011;11135;54.192;15.670;2023-06-26T20:38:56;10.75;;;7.28;;
21941;SDS011;11135;54.192;15.670;2023-06-26T20:42:03;15.85;;;10.07;;
21941;SDS011;11135;54.192;15.670;2023-06-26T20:45:09;15.00;;;9.45;;
21941;SDS011;11135;54.192;15.670;2023-06-26T20:48:16;14.30;;;7.95;;
21941;SDS011;11135;54.192;15.670;2023-06-26T20:51:22;13.85;;;8.80;;
21941;SDS011;11135;54.192;15.670;2023-06-26T20:54:32;13.68;;;8.07;;
21941;SDS011;11135;54.192;15.670;2023-06-26T20:57:37;13.38;;;7.68;;
21941;SDS011;11135;54.192;15.670;2023-06-26T21:00:43;10.82;;;7.60;;
21941;SDS011;11135;54.192;15.670;2023-06-26T21:03:48;14.23;;;9.02;;
21941;SDS011;11135;54.192;15.670;2023-06-26T21:06:53;16.23;;;7.18;;
21941;SDS011;11135;54.192;15.670;2023-06-26T21:10:02;11.25;;;6.18;;
21941;SDS011;11135;54.192;15.670;2023-06-26T21:13:10;10.38;;;5.63;;
21941;SDS011;11135;54.192;15.670;2023-06-26T21:16:15;10.73;;;7.07;;
21941;SDS011;11135;54.192;15.670;2023-06-26T21:19:21;11.90;;;6.85;;
21941;SDS011;11135;54.192;15.670;2023-06-26T21:22:26;10.65;;;6.25;;
21941;SDS011;11135;54.192;15.670;2023-06-26T21:25:34;10.65;;;5.90;;
21941;SDS011;11135;54.192;15.670;2023-06-26T21:28:40;14.43;;;5.75;;
21941;SDS011;11135;54.192;15.670;2023-06-26T21:31:45;9.68;;;5.72;;
21941;SDS011;11135;54.192;15.670;2023-06-26T21:34:52;8.07;;;4.45;;
21941;SDS011;11135;54.192;15.670;2023-06-26T21:37:59;8.13;;;4.18;;
21941;SDS011;11135;54.192;15.670;2023-06-26T21:41:07;8.20;;;4.03;;
21941;SDS011;11135;54.192;15.670;2023-06-26T21:44:12;11.07;;;3.60;;